Time;durP1;ratioP1;P1;durP2;ratioP2;P2;SDS_P1;SDS_P2;PMS_P1;PMS_P2;Temp;Humidity;BMP_temperature;BMP_pressure;BME280_temperature;BME280_humidity;BME280_pressure;Samples;Min_cycle;Max_cycle;Signal;HPM_P1;HPM_P2
2023/01/10 05:32:48;;;;;;;8.73;2.20;;;8.40;89.10;;;;;;4859891;29;20420;-77
2023/01/10 05:35:14;;;;;;;10.18;1.88;;;8.60;89.30;;;;;;4865951;29;20112;-76
2023/01/10 05:37:39;;;;;;;11.57;3.00;;;8.60;88.70;;;;;;4864311;29;20032;-75
2023/01/10 05:40:06;;;;;;;14.48;2.92;;;8.70;88.90;;;;;;4864688;29;20034;-76
2023/01/10 05:42:31;;;;;;;12.43;2.80;;;8.70;88.60;;;;;;4845148;29;20034;-77
2023/01/10 05:44:57;;;;;;;11.50;3.30;;;8.70;88.80;;;;;;4847148;29;20036;-76
2023/01/10 05:47:24;;;;;;;6.15;1.77;;;8.60;88.90;;;;;;4847210;29;20030;-75
2023/01/10 05:49:49;;;;;;;9.43;2.25;;;8.60;89.10;;;;;;4847040;29;20490;-77
2023/01/10 05:52:15;;;;;;;8.15;2.50;;;8.50;88.80;;;;;;4857386;29;20056;-76
2023/01/10 05:54:41;;;;;;;11.60;2.35;;;8.60;88.80;;;;;;4875279;29;20467;-75
2023/01/10 05:57:06;;;;;;;6.22;2.45;;;8.60;88.50;;;;;;4883028;29;20512;-78
2023/01/10 05:59:32;;;;;;;13.57;3.00;;;8.70;88.60;;;;;;4882744;29;20057;-76
2023/01/10 06:01:58;;;;;;;12.07;2.92;;;8.60;89.00;;;;;;4861943;29;20037;-76
2023/01/10 06:04:23;;;;;;;12.80;3.22;;;8.60;88.70;;;;;;4856814;29;20025;-76
2023/01/10 06:06:49;;;;;;;12.45;2.92;;;8.50;88.90;;;;;;4851323;29;20017;-77
2023/01/10 06:09:15;;;;;;;8.20;2.92;;;8.50;89.00;;;;;;4864766;29;20033;-76
2023/01/10 06:11:40;;;;;;;9.98;3.58;;;8.60;89.20;;;;;;4854634;29;20042;-76
2023/01/10 06:14:06;;;;;;;7.07;3.17;;;8.60;88.90;;;;;;4846425;29;20030;-75
2023/01/10 06:16:32;;;;;;;4.47;1.67;;;8.60;89.10;;;;;;4838801;29;20029;-76
2023/01/10 06:18:58;;;;;;;9.15;2.78;;;8.60;89.10;;;;;;4847508;29;20034;-77
2023/01/10 06:21:23;;;;;;;6.38;2.38;;;8.60;89.20;;;;;;4846791;29;20204;-77
2023/01/10 06:23:49;;;;;;;8.88;2.30;;;8.50;89.30;;;;;;4829667;29;20026;-77
2023/01/10 06:26:15;;;;;;;8.38;2.97;;;8.50;89.70;;;;;;4867901;29;20037;-76
2023/01/10 06:28:43;;;;;;;7.18;2.38;;;8.50;89.70;;;;;;4860766;29;20038;-78
2023/01/10 06:31:09;;;;;;;3.88;2.38;;;8.60;89.90;;;;;;4862635;29;20065;-77
2023/01/10 06:33:37;;;;;;;10.27;2.97;;;8.70;89.80;;;;;;4863553;29;20089;-78
2023/01/10 06:36:03;;;;;;;7.63;1.88;;;8.70;89.80;;;;;;4863394;29;20832;-78
2023/01/10 06:38:29;;;;;;;4.80;2.65;;;8.70;89.80;;;;;;4864772;29;20050;-78
2023/01/10 06:40:55;;;;;;;4.40;2.45;;;8.70;89.80;;;;;;4864604;29;20492;-78
2023/01/10 06:43:20;;;;;;;6.72;3.35;;;8.80;90.10;;;;;;4864808;29;20504;-78
2023/01/10 06:45:46;;;;;;;4.47;2.13;;;8.80;89.80;;;;;;4864040;29;20099;-78
2023/01/10 06:48:12;;;;;;;6.95;2.90;;;8.80;89.80;;;;;;4863614;29;20029;-78
2023/01/10 06:50:37;;;;;;;5.38;2.33;;;8.80;90.10;;;;;;4864027;29;20397;-77
2023/01/10 06:53:04;;;;;;;7.32;3.35;;;8.80;90.20;;;;;;4847550;29;20036;-78
2023/01/10 06:55:30;;;;;;;6.78;4.20;;;8.80;90.00;;;;;;4873453;29;20030;-78
2023/01/10 06:58:01;;;;;;;4.93;2.50;;;8.90;90.20;;;;;;4863402;29;20033;-77
2023/01/10 07:00:28;;;;;;;5.70;2.35;;;8.90;90.00;;;;;;4863269;29;20041;-77
2023/01/10 07:02:56;;;;;;;5.63;2.45;;;9.00;89.90;;;;;;4864003;29;20646;-78
2023/01/10 07:05:22;;;;;;;6.57;2.80;;;9.00;89.80;;;;;;4864223;29;20029;-78
2023/01/10 07:07:48;;;;;;;9.10;3.35;;;9.00;89.90;;;;;;4864041;29;20415;-77
2023/01/10 07:10:14;;;;;;;3.63;1.60;;;9.00;89.90;;;;;;4862587;29;20037;-78
2023/01/10 07:12:39;;;;;;;6.53;2.65;;;9.10;89.80;;;;;;4859228;29;20026;-78
2023/01/10 07:15:06;;;;;;;5.80;2.28;;;9.10;89.80;;;;;;4859651;29;20061;-78
2023/01/10 07:17:32;;;;;;;4.65;1.92;;;9.00;90.00;;;;;;4856338;29;20093;-78
2023/01/10 07:19:57;;;;;;;7.60;2.25;;;9.10;89.90;;;;;;4864010;29;20033;-77
2023/01/10 07:22:23;;;;;;;35.05;4.10;;;9.20;89.90;;;;;;4864404;29;20021;-77
2023/01/10 07:24:48;;;;;;;11.00;2.15;;;9.10;89.80;;;;;;4863976;29;20116;-78
2023/01/10 07:27:14;;;;;;;6.55;2.00;;;9.10;90.10;;;;;;4863329;29;20097;-78
2023/01/10 07:29:40;;;;;;;2.75;1.55;;;9.10;90.30;;;;;;4864008;29;20028;-78
2023/01/10 07:32:06;;;;;;;3.97;1.63;;;9.10;90.40;;;;;;4846845;29;20057;-77
2023/01/10 07:34:31;;;;;;;3.80;1.90;;;9.20;90.40;;;;;;4863862;29;20061;-78
2023/01/10 07:36:57;;;;;;;3.72;1.80;;;9.20;90.30;;;;;;4863534;29;20466;-77
2023/01/10 07:39:23;;;;;;;3.20;1.77;;;9.20;90.10;;;;;;4846356;29;20048;-78
2023/01/10 07:41:49;;;;;;;2.60;1.40;;;9.30;90.20;;;;;;4863907;29;20040;-78
2023/01/10 07:44:15;;;;;;;6.38;1.92;;;9.30;90.20;;;;;;4862316;29;20034;-78
2023/01/10 07:46:41;;;;;;;1.10;1.00;;;9.30;90.00;;;;;;4847053;29;20029;-78
2023/01/10 07:49:07;;;;;;;2.83;1.70;;;9.30;90.10;;;;;;4862866;29;20090;-78
2023/01/10 07:51:33;;;;;;;6.28;1.67;;;9.40;90.20;;;;;;4863817;29;20485;-78
2023/01/10 07:54:02;;;;;;;7.25;1.90;;;9.50;90.10;;;;;;4851612;29;20492;-78
2023/01/10 07:56:28;;;;;;;4.33;1.73;;;9.50;90.10;;;;;;4866548;29;20169;-78
2023/01/10 07:58:53;;;;;;;2.28;1.85;;;9.60;90.00;;;;;;4863590;29;20307;-78
2023/01/10 08:01:20;;;;;;;3.17;1.67;;;9.50;90.00;;;;;;4863349;29;20370;-78
2023/01/10 08:03:45;;;;;;;7.20;2.15;;;9.60;90.00;;;;;;4863353;29;20029;-78
2023/01/10 08:06:11;;;;;;;2.88;1.90;;;9.60;89.90;;;;;;4843271;29;20045;-78
2023/01/10 08:08:37;;;;;;;2.83;1.60;;;9.60;89.90;;;;;;4845105;29;20073;-78
2023/01/10 08:11:06;;;;;;;5.63;2.45;;;9.60;89.90;;;;;;4854129;29;20026;-78
2023/01/10 08:13:32;;;;;;;3.72;1.48;;;9.70;89.90;;;;;;4844062;29;20482;-78
2023/01/10 08:15:58;;;;;;;4.05;2.08;;;9.70;89.90;;;;;;4843564;29;20117;-78
2023/01/10 08:18:25;;;;;;;5.65;2.13;;;9.70;89.90;;;;;;4845018;29;20038;-78
2023/01/10 08:20:52;;;;;;;4.72;2.10;;;9.70;89.80;;;;;;4859242;29;20041;-78
2023/01/10 08:23:18;;;;;;;3.10;2.13;;;9.70;89.80;;;;;;4846140;29;20030;-78
2023/01/10 08:25:44;;;;;;;2.45;1.60;;;9.80;89.70;;;;;;4844736;29;20061;-78
2023/01/10 08:28:10;;;;;;;4.13;2.33;;;9.80;89.80;;;;;;4855521;29;20157;-78
2023/01/10 08:30:37;;;;;;;3.67;2.10;;;9.80;89.90;;;;;;4862690;29;20090;-78
2023/01/10 08:33:04;;;;;;;2.50;1.80;;;9.80;89.90;;;;;;4842043;29;20033;-78
2023/01/10 08:35:30;;;;;;;3.97;1.98;;;9.90;89.90;;;;;;4862890;29;20069;-78
2023/01/10 08:37:59;;;;;;;3.92;2.38;;;9.90;89.70;;;;;;4862930;29;20044;-77
2023/01/10 08:40:25;;;;;;;3.28;2.17;;;9.90;89.70;;;;;;4862935;29;20033;-78
2023/01/10 08:43:06;;;;;;;4.88;2.30;;;10.00;89.60;;;;;;4849417;29;20033;-78
2023/01/10 08:45:32;;;;;;;4.75;2.15;;;10.00;89.90;;;;;;4862647;29;20045;-78
2023/01/10 08:47:58;;;;;;;4.50;2.38;;;10.00;89.90;;;;;;4860009;29;20060;-78
2023/01/10 08:50:24;;;;;;;3.75;2.42;;;10.00;90.00;;;;;;4862457;29;20042;-78
2023/01/10 08:52:50;;;;;;;4.88;2.60;;;10.10;89.90;;;;;;4849273;29;20346;-78
2023/01/10 08:55:17;;;;;;;3.33;2.40;;;10.10;89.90;;;;;;4862000;29;20056;-77
2023/01/10 08:57:42;;;;;;;5.43;2.70;;;10.20;89.90;;;;;;4862950;29;20456;-78
2023/01/10 09:00:10;;;;;;;4.75;2.92;;;10.10;90.10;;;;;;4862384;29;20038;-77
2023/01/10 09:02:38;;;;;;;4.07;3.03;;;10.20;90.10;;;;;;4862835;29;20044;-78
2023/01/10 09:05:04;;;;;;;7.28;2.97;;;10.20;90.10;;;;;;4862832;29;20096;-77
2023/01/10 09:07:29;;;;;;;6.00;2.40;;;10.30;90.20;;;;;;4842928;29;20065;-77
2023/01/10 09:09:55;;;;;;;4.32;2.97;;;10.20;90.20;;;;;;4828103;29;20034;-78
2023/01/10 09:15:05;;;;;;;4.47;2.63;;;10.40;90.40;;;;;;4862412;29;20081;-78
2023/01/10 09:17:31;;;;;;;7.53;2.60;;;10.50;90.20;;;;;;4862674;29;20484;-78
2023/01/10 09:19:57;;;;;;;4.32;2.80;;;10.50;90.30;;;;;;4862781;29;20173;-78
2023/01/10 09:22:22;;;;;;;5.75;2.78;;;10.60;90.30;;;;;;4862710;29;20108;-78
2023/01/10 09:24:48;;;;;;;4.35;2.78;;;10.70;90.10;;;;;;4846097;29;20034;-78
2023/01/10 09:27:14;;;;;;;7.70;4.25;;;10.70;90.30;;;;;;4866261;29;20033;-78
2023/01/10 09:29:40;;;;;;;11.00;4.55;;;10.80;90.20;;;;;;4866056;29;20038;-78
2023/01/10 09:32:06;;;;;;;8.18;3.08;;;10.80;90.30;;;;;;4865311;29;20508;-78
2023/01/10 09:34:32;;;;;;;6.75;2.97;;;10.80;90.40;;;;;;4865565;29;20090;-78
2023/01/10 09:36:57;;;;;;;5.65;2.35;;;10.90;90.40;;;;;;4866053;29;20041;-78
2023/01/10 09:39:24;;;;;;;8.70;2.75;;;10.90;90.50;;;;;;4865194;29;20064;-78
2023/01/10 09:42:21;;;;;;;8.75;3.47;;;11.00;90.30;;;;;;4865457;29;20025;-78
2023/01/10 09:45:00;;;;;;;5.40;2.75;;;11.00;90.40;;;;;;4849439;29;20026;-78
2023/01/10 09:47:47;;;;;;;6.25;3.28;;;11.10;90.40;;;;;;4849062;29;20549;-78
2023/01/10 09:50:21;;;;;;;8.05;3.30;;;11.10;90.40;;;;;;4865342;29;20033;-78
2023/01/10 09:52:54;;;;;;;9.82;3.65;;;11.20;90.50;;;;;;4864744;29;20579;-78
2023/01/10 09:55:28;;;;;;;7.60;3.22;;;11.20;90.50;;;;;;4867743;29;20033;-78
2023/01/10 09:57:57;;;;;;;7.50;3.20;;;11.30;90.60;;;;;;4875693;29;20144;-78
2023/01/10 10:00:33;;;;;;;7.15;2.35;;;11.30;90.30;;;;;;4865456;29;20022;-78
2023/01/10 10:02:59;;;;;;;7.50;2.95;;;11.30;90.40;;;;;;4865717;29;20445;-78
2023/01/10 10:05:27;;;;;;;5.95;3.60;;;11.40;90.30;;;;;;4865538;29;20021;-78
2023/01/10 10:07:56;;;;;;;8.23;3.45;;;11.40;90.50;;;;;;4848367;29;20062;-78
2023/01/10 10:10:52;;;;;;;6.40;2.50;;;11.50;90.70;;;;;;4865535;29;20500;-78
2023/01/10 10:13:18;;;;;;;6.93;2.67;;;11.60;90.60;;;;;;4845887;29;20046;-78
2023/01/10 10:16:07;;;;;;;8.30;2.88;;;11.70;90.50;;;;;;4864789;29;20418;-78
2023/01/10 10:18:54;;;;;;;9.98;2.75;;;11.70;90.30;;;;;;4865480;29;20033;-78
2023/01/10 10:21:35;;;;;;;9.95;2.60;;;11.80;90.50;;;;;;4864621;29;20029;-78
2023/01/10 10:24:47;;;;;;;14.20;3.10;;;11.80;90.40;;;;;;4846886;29;20398;-78
2023/01/10 10:27:38;;;;;;;8.00;2.38;;;11.90;90.30;;;;;;4784629;30;20656;-79
2023/01/10 10:30:19;;;;;;;9.75;2.35;;;11.90;90.30;;;;;;4844734;29;20042;-78
2023/01/10 10:33:00;;;;;;;10.35;3.33;;;12.00;90.40;;;;;;4848935;29;20049;-79
2023/01/10 10:35:58;;;;;;;12.48;2.90;;;12.00;90.20;;;;;;4846524;29;20058;-78
2023/01/10 10:38:28;;;;;;;13.18;3.17;;;12.10;90.10;;;;;;4829626;29;20421;-79
2023/01/10 10:40:56;;;;;;;5.55;2.25;;;12.20;90.40;;;;;;4861582;29;20070;-79
2023/01/10 10:43:34;;;;;;;11.05;2.80;;;12.20;90.30;;;;;;4864858;29;20029;-78
2023/01/10 10:46:01;;;;;;;12.77;2.70;;;12.30;90.10;;;;;;4864930;29;20060;-79
2023/01/10 10:48:49;;;;;;;10.68;2.13;;;12.30;90.20;;;;;;4864228;29;20105;-78
2023/01/10 10:51:28;;;;;;;6.35;2.83;;;12.40;90.00;;;;;;4861860;29;20088;-78
2023/01/10 10:53:55;;;;;;;11.88;3.13;;;12.40;90.10;;;;;;4868630;29;20587;-78
2023/01/10 10:56:25;;;;;;;17.58;3.13;;;12.50;90.00;;;;;;4863592;29;20030;-78
2023/01/10 10:58:54;;;;;;;12.57;2.85;;;12.60;89.90;;;;;;4864745;29;20647;-79
2023/01/10 11:01:21;;;;;;;18.63;2.97;;;12.60;89.90;;;;;;4864085;29;20516;-78
2023/01/10 11:03:52;;;;;;;13.48;3.45;;;12.70;90.10;;;;;;4864044;29;20297;-78
2023/01/10 11:06:19;;;;;;;13.45;2.47;;;12.80;89.90;;;;;;4864430;29;20061;-78
2023/01/10 11:08:47;;;;;;;13.43;2.33;;;12.70;89.80;;;;;;4864520;29;20037;-78
2023/01/10 11:11:30;;;;;;;16.33;2.63;;;12.80;89.70;;;;;;4863853;29;20094;-78
2023/01/10 11:13:59;;;;;;;16.02;2.63;;;12.80;89.70;;;;;;4864289;29;20030;-78
2023/01/10 11:16:35;;;;;;;12.20;2.78;;;12.80;89.90;;;;;;4862427;29;20029;-79
2023/01/10 11:19:26;;;;;;;14.15;2.58;;;12.90;89.60;;;;;;4863623;29;20033;-78
2023/01/10 11:21:56;;;;;;;12.55;2.83;;;13.00;89.70;;;;;;4862727;29;20037;-78
2023/01/10 11:24:32;;;;;;;14.93;2.80;;;13.10;89.40;;;;;;4864278;29;20026;-78
2023/01/10 11:27:04;;;;;;;11.60;2.92;;;13.20;89.30;;;;;;4859204;29;20121;-79
2023/01/10 11:29:37;;;;;;;12.10;2.40;;;13.30;89.20;;;;;;4845873;29;20476;-78
2023/01/10 11:32:15;;;;;;;14.02;3.42;;;13.40;89.20;;;;;;4855672;29;20524;-78
2023/01/10 11:34:57;;;;;;;12.27;2.50;;;13.50;88.90;;;;;;4863036;29;20044;-78
2023/01/10 11:37:31;;;;;;;12.43;2.10;;;13.60;88.90;;;;;;4847043;29;20449;-78
2023/01/10 11:40:24;;;;;;;25.17;4.05;;;13.70;88.70;;;;;;4863890;29;20518;-78
2023/01/10 11:42:53;;;;;;;14.73;2.92;;;13.60;88.80;;;;;;4863695;29;20021;-78
2023/01/10 11:45:19;;;;;;;12.97;2.87;;;13.70;88.80;;;;;;4861291;29;20026;-78
2023/01/10 11:47:54;;;;;;;12.55;2.47;;;13.70;88.60;;;;;;4862662;29;20276;-78
2023/01/10 11:50:23;;;;;;;15.30;3.35;;;13.70;88.40;;;;;;4863751;29;20063;-78
2023/01/10 11:52:49;;;;;;;13.83;2.70;;;13.60;88.30;;;;;;4863372;29;20030;-78
2023/01/10 11:55:30;;;;;;;11.13;2.42;;;13.60;88.60;;;;;;4868340;29;20270;-78
2023/01/10 11:58:04;;;;;;;;;;;13.60;88.50;;;;;;4863923;29;20481;-78
2023/01/10 12:00:40;;;;;;;11.32;2.38;;;13.60;88.50;;;;;;4862962;29;19919;-78
2023/01/10 12:03:29;;;;;;;19.17;3.08;;;13.60;88.40;;;;;;4863448;29;20029;-79
2023/01/10 12:06:04;;;;;;;16.27;2.60;;;13.60;88.50;;;;;;4863562;29;20104;-78
2023/01/10 12:08:35;;;;;;;18.33;2.90;;;13.70;88.40;;;;;;4862903;29;20021;-78
2023/01/10 12:11:06;;;;;;;13.55;2.47;;;13.70;88.40;;;;;;4856062;29;20032;-78
2023/01/10 12:14:01;;;;;;;10.77;2.38;;;13.60;88.20;;;;;;4844831;29;20067;-78
2023/01/10 12:16:29;;;;;;;13.02;2.53;;;13.70;88.40;;;;;;4817737;29;20186;-78
2023/01/10 12:19:01;;;;;;;18.80;3.08;;;13.70;88.20;;;;;;4863298;29;20424;-78
2023/01/10 12:21:29;;;;;;;18.80;3.33;;;13.80;88.10;;;;;;4863260;29;20499;-78
2023/01/10 12:23:59;;;;;;;13.23;2.15;;;13.90;88.00;;;;;;4861581;29;20026;-78
2023/01/10 12:26:29;;;;;;;8.50;2.92;;;14.00;87.70;;;;;;4863237;29;20029;-78
2023/01/10 12:28:58;;;;;;;15.52;2.45;;;14.10;87.50;;;;;;4863101;29;20029;-78
2023/01/10 12:31:25;;;;;;;13.98;2.85;;;14.20;87.30;;;;;;4863025;29;20944;-78
2023/01/10 12:34:12;;;;;;;21.05;4.40;;;14.30;87.20;;;;;;4862700;29;20037;-78
2023/01/10 12:37:01;;;;;;;10.32;2.42;;;14.30;87.00;;;;;;4863138;29;20033;-78
2023/01/10 12:39:39;;;;;;;16.92;2.83;;;14.30;86.80;;;;;;4846737;29;20038;-78
2023/01/10 12:45:15;;;;;;;16.58;2.53;;;14.40;87.00;;;;;;4862592;29;20052;-77
2023/01/10 12:47:46;;;;;;;15.57;2.78;;;14.40;86.80;;;;;;4861742;29;20037;-77
2023/01/10 12:50:21;;;;;;;25.95;3.30;;;14.40;86.50;;;;;;4862693;29;20037;-77
2023/01/10 12:53:14;;;;;;;18.40;2.35;;;14.40;86.20;;;;;;4844501;29;20116;-78
2023/01/10 12:55:42;;;;;;;15.93;2.53;;;14.50;86.10;;;;;;4867086;29;20029;-78
2023/01/10 12:58:22;;;;;;;14.60;3.13;;;14.40;86.00;;;;;;4862176;29;20085;-78
2023/01/10 13:00:52;;;;;;;12.85;2.85;;;14.40;86.00;;;;;;4864611;29;20837;-78
2023/01/10 13:03:26;;;;;;;18.55;3.38;;;14.40;86.10;;;;;;4850167;29;20041;-77
2023/01/10 13:05:53;;;;;;;17.63;3.28;;;14.30;85.80;;;;;;4866256;29;20096;-77
2023/01/10 13:08:23;;;;;;;12.07;2.67;;;14.40;86.00;;;;;;4866294;29;20034;-78
2023/01/10 13:10:52;;;;;;;22.15;2.80;;;14.30;86.20;;;;;;4861773;29;20090;-77
2023/01/10 13:13:21;;;;;;;15.32;2.92;;;14.30;86.30;;;;;;4866385;29;20045;-78
2023/01/10 13:16:08;;;;;;;24.52;4.20;;;14.30;86.00;;;;;;4866297;29;20026;-78
2023/01/10 13:18:34;;;;;;;16.55;3.10;;;14.20;86.10;;;;;;4864563;29;20029;-77
2023/01/10 13:21:19;;;;;;;10.63;2.20;;;14.20;86.10;;;;;;4866265;29;20092;-77
2023/01/10 13:23:57;;;;;;;14.25;2.75;;;14.20;86.10;;;;;;4849442;29;20040;-78
2023/01/10 13:26:23;;;;;;;23.70;2.85;;;14.20;86.00;;;;;;4865805;29;20076;-77
2023/01/10 13:29:11;;;;;;;11.90;2.22;;;14.30;86.00;;;;;;4865964;29;20037;-78
2023/01/10 13:31:37;;;;;;;11.38;2.58;;;14.30;85.70;;;;;;4866058;29;20073;-77
2023/01/10 13:34:12;;;;;;;15.15;2.90;;;14.30;85.50;;;;;;4865523;29;20576;-77
2023/01/10 13:36:41;;;;;;;14.73;2.17;;;14.40;85.50;;;;;;4865359;29;20149;-77
2023/01/10 13:39:31;;;;;;;7.10;2.15;;;14.40;85.30;;;;;;4849183;29;20492;-77
2023/01/10 13:44:59;;;;;;;9.77;2.03;;;14.40;84.90;;;;;;4865822;29;19915;-77
2023/01/10 13:47:44;;;;;;;18.48;2.30;;;14.40;84.70;;;;;;4865190;29;20037;-77
2023/01/10 13:50:45;;;;;;;11.15;2.20;;;14.40;84.50;;;;;;4865940;29;20032;-77
2023/01/10 13:53:14;;;;;;;19.25;3.53;;;14.40;84.60;;;;;;4853175;29;20129;-77
2023/01/10 13:55:42;;;;;;;14.25;2.50;;;14.40;84.20;;;;;;4863371;29;20117;-78
2023/01/10 13:58:16;;;;;;;12.85;2.33;;;14.40;84.50;;;;;;4865551;29;20033;-78
2023/01/10 14:03:53;;;;;;;11.60;2.67;;;14.30;84.70;;;;;;4865496;29;20460;-77
2023/01/10 14:06:28;;;;;;;12.55;3.00;;;14.30;84.60;;;;;;4865080;29;20053;-77
2023/01/10 14:09:17;;;;;;;9.98;2.35;;;14.20;84.60;;;;;;4864178;29;20048;-77
2023/01/10 14:11:42;;;;;;;16.02;2.30;;;14.20;84.60;;;;;;4850660;29;20458;-78
2023/01/10 14:14:20;;;;;;;5.07;1.90;;;14.20;84.80;;;;;;4853364;29;20084;-77
2023/01/10 14:16:50;;;;;;;10.43;2.00;;;14.20;84.90;;;;;;4865323;29;20022;-77
2023/01/10 14:19:25;;;;;;;;;;;14.20;84.60;;;;;;4865220;29;20088;-77
2023/01/10 14:21:56;;;;;;;7.68;1.75;;;14.20;84.00;;;;;;4848645;29;19912;-77
2023/01/10 14:24:34;;;;;;;9.15;1.70;;;14.20;84.20;;;;;;4864696;29;20137;-77
2023/01/10 14:27:02;;;;;;;9.82;2.30;;;14.20;84.30;;;;;;4865251;29;20115;-77
2023/01/10 14:29:31;;;;;;;13.25;2.72;;;14.20;84.10;;;;;;4865046;29;20021;-77
2023/01/10 14:31:58;;;;;;;7.95;1.17;;;14.20;84.20;;;;;;4864859;29;20053;-77
2023/01/10 14:34:34;;;;;;;11.48;2.42;;;14.20;84.20;;;;;;4849860;29;20044;-77
2023/01/10 14:37:16;;;;;;;14.85;2.70;;;14.20;83.90;;;;;;4864986;29;20112;-77
2023/01/10 14:39:43;;;;;;;9.98;2.00;;;14.20;84.00;;;;;;4864363;29;20579;-77
2023/01/10 14:42:15;;;;;;;9.60;1.77;;;14.20;84.00;;;;;;4864691;29;20068;-77
2023/01/10 14:45:13;;;;;;;7.15;1.65;;;14.20;83.90;;;;;;4846319;29;20101;-77
2023/01/10 14:47:39;;;;;;;8.98;1.88;;;14.20;84.10;;;;;;4852186;29;20594;-78
2023/01/10 14:50:05;;;;;;;14.25;2.58;;;14.20;84.20;;;;;;4864732;29;20033;-77
2023/01/10 14:52:32;;;;;;;8.15;1.63;;;14.20;84.10;;;;;;4861874;29;20029;-77
2023/01/10 14:55:10;;;;;;;6.28;1.42;;;14.10;83.80;;;;;;4876600;29;20031;-77
2023/01/10 14:57:36;;;;;;;10.50;2.03;;;14.10;84.30;;;;;;4864534;29;20412;-77
2023/01/10 15:00:06;;;;;;;9.48;2.17;;;14.10;84.30;;;;;;4864257;29;20033;-77
2023/01/10 15:02:32;;;;;;;7.95;1.35;;;14.10;84.40;;;;;;4864525;29;20370;-77
2023/01/10 15:04:59;;;;;;;10.23;1.65;;;14.10;84.60;;;;;;4864009;29;20066;-77
2023/01/10 15:07:26;;;;;;;6.03;1.50;;;14.10;84.80;;;;;;4864364;29;20108;-77
2023/01/10 15:09:56;;;;;;;7.22;1.52;;;14.20;84.90;;;;;;4863981;29;20037;-76
2023/01/10 15:12:23;;;;;;;7.72;2.03;;;14.10;84.80;;;;;;4847707;29;20100;-77
2023/01/10 15:14:53;;;;;;;6.57;1.60;;;14.10;84.80;;;;;;4863847;29;20041;-77
2023/01/10 15:17:20;;;;;;;6.32;1.70;;;14.10;85.00;;;;;;4861364;29;20129;-77
2023/01/10 15:19:51;;;;;;;14.55;2.33;;;14.10;85.10;;;;;;4844006;29;20029;-77
2023/01/10 15:22:21;;;;;;;;;;;14.00;85.50;;;;;;4845562;29;20128;-77
2023/01/10 15:25:27;;;;;;;9.95;1.95;;;14.00;85.60;;;;;;4857675;29;19951;-77
2023/01/10 15:27:53;;;;;;;7.78;1.58;;;14.00;85.90;;;;;;4854334;29;20029;-77
2023/01/10 15:30:28;;;;;;;5.78;1.80;;;14.00;86.30;;;;;;4861148;29;20026;-77
2023/01/10 15:32:59;;;;;;;6.07;1.40;;;14.00;86.30;;;;;;4860638;29;20041;-77
2023/01/10 15:35:28;;;;;;;10.27;1.98;;;14.00;86.40;;;;;;4862212;29;20072;-77
2023/01/10 15:37:58;;;;;;;10.32;2.08;;;14.00;86.30;;;;;;4861038;29;20457;-77
2023/01/10 15:40:37;;;;;;;7.78;1.90;;;14.00;86.30;;;;;;4862554;29;20374;-78
2023/01/10 15:43:30;;;;;;;9.60;1.60;;;14.00;86.40;;;;;;4859181;29;20561;-77
2023/01/10 15:45:58;;;;;;;7.22;1.70;;;13.90;86.30;;;;;;4841136;29;20033;-77
2023/01/10 15:48:33;;;;;;;7.32;1.67;;;14.00;86.30;;;;;;4844451;29;20092;-76
2023/01/10 15:51:32;;;;;;;3.47;1.10;;;13.90;86.40;;;;;;4859507;29;20033;-76
2023/01/10 15:54:28;;;;;;;3.63;1.42;;;13.90;86.40;;;;;;4856696;29;20541;-77
2023/01/10 15:57:06;;;;;;;6.90;1.02;;;13.80;86.50;;;;;;4880486;29;20044;-77
2023/01/10 15:59:36;;;;;;;7.68;1.50;;;13.80;86.30;;;;;;4871151;29;20484;-77
2023/01/10 16:02:10;;;;;;;9.35;1.60;;;13.90;86.00;;;;;;4862975;29;20021;-77
2023/01/10 16:04:39;;;;;;;5.95;1.20;;;13.80;86.00;;;;;;4862325;29;20049;-77
2023/01/10 16:07:18;;;;;;;9.43;1.48;;;13.80;86.00;;;;;;4863762;29;20082;-76
2023/01/10 16:09:53;;;;;;;4.72;1.17;;;13.80;85.70;;;;;;4862362;29;20124;-76
2023/01/10 16:15:18;;;;;;;3.17;0.93;;;13.80;85.60;;;;;;4863216;29;20041;-77
2023/01/10 16:17:45;;;;;;;4.68;1.38;;;13.80;85.80;;;;;;4862897;29;20041;-77
2023/01/10 16:20:13;;;;;;;6.70;1.42;;;13.80;85.80;;;;;;4863044;29;20026;-77
2023/01/10 16:22:38;;;;;;;5.28;1.15;;;13.80;85.70;;;;;;4863118;29;20543;-76
2023/01/10 16:25:05;;;;;;;2.72;1.20;;;13.80;85.80;;;;;;4845980;29;20193;-77
2023/01/10 16:27:30;;;;;;;2.45;0.95;;;13.70;85.70;;;;;;4861623;29;20531;-76
2023/01/10 16:29:56;;;;;;;8.65;1.85;;;13.70;85.50;;;;;;4863097;29;20033;-77
2023/01/10 16:32:25;;;;;;;4.60;1.70;;;13.70;85.60;;;;;;4862962;29;20112;-76
2023/01/10 16:34:50;;;;;;;12.98;1.50;;;13.70;85.70;;;;;;4845274;29;20519;-77
2023/01/10 16:37:16;;;;;;;11.15;1.95;;;13.70;85.80;;;;;;4846514;29;20068;-76
2023/01/10 16:39:41;;;;;;;9.98;1.58;;;13.70;85.80;;;;;;4862237;29;20045;-77
2023/01/10 16:44:52;;;;;;;11.18;2.28;;;13.70;85.80;;;;;;4855326;29;20073;-77
2023/01/10 16:47:18;;;;;;;4.80;1.40;;;13.70;85.90;;;;;;4844493;29;20029;-76
2023/01/10 16:49:45;;;;;;;8.52;2.40;;;13.70;85.80;;;;;;4846597;29;20037;-76
2023/01/10 16:52:14;;;;;;;5.05;2.10;;;13.70;85.70;;;;;;4844731;29;20033;-76
2023/01/10 16:54:44;;;;;;;5.05;1.40;;;13.70;85.70;;;;;;4865196;29;20032;-76
2023/01/10 16:57:10;;;;;;;;;;;13.70;85.90;;;;;;4880782;29;20100;-76
2023/01/10 16:59:36;;;;;;;4.90;1.40;;;13.70;85.90;;;;;;4866312;29;20421;-77
2023/01/10 17:02:02;;;;;;;7.50;1.30;;;13.70;85.70;;;;;;4861733;29;20018;-76
2023/01/10 17:04:31;;;;;;;9.45;1.48;;;13.70;85.90;;;;;;4862342;29;20029;-76
2023/01/10 17:06:58;;;;;;;4.18;1.33;;;13.70;85.80;;;;;;4862659;29;20037;-76
2023/01/10 17:09:24;;;;;;;4.55;1.88;;;13.70;85.80;;;;;;4861928;29;20026;-76
2023/01/10 17:12:05;;;;;;;8.55;1.90;;;13.70;85.80;;;;;;4855807;29;20030;-76
2023/01/10 17:14:32;;;;;;;;;;;13.70;85.90;;;;;;4852542;29;20029;-76
2023/01/10 17:16:57;;;;;;;9.65;1.63;;;13.70;85.80;;;;;;4852540;29;20439;-76
2023/01/10 17:19:23;;;;;;;6.80;1.45;;;13.70;85.80;;;;;;4853406;29;20057;-76
2023/01/10 17:21:49;;;;;;;9.70;1.83;;;13.70;85.80;;;;;;4851683;29;20108;-79
2023/01/10 17:24:15;;;;;;;4.90;1.33;;;13.70;85.70;;;;;;4852635;29;20520;-76
2023/01/10 17:26:41;;;;;;;11.63;1.77;;;13.70;86.00;;;;;;4851898;29;20033;-76
2023/01/10 17:29:09;;;;;;;11.35;2.20;;;13.70;86.10;;;;;;4856461;29;20388;-78
2023/01/10 17:31:35;;;;;;;14.60;2.25;;;13.70;86.00;;;;;;4857299;29;20113;-76
2023/01/10 17:34:00;;;;;;;5.80;2.42;;;13.70;86.10;;;;;;4857644;29;20030;-75
2023/01/10 17:36:27;;;;;;;11.32;1.63;;;13.60;86.10;;;;;;4858182;29;20036;-75
2023/01/10 17:38:54;;;;;;;7.45;1.35;;;13.60;86.10;;;;;;4855786;29;20521;-75
2023/01/10 17:41:19;;;;;;;5.75;2.15;;;13.60;86.20;;;;;;4856075;29;20120;-75
2023/01/10 17:43:45;;;;;;;8.27;1.58;;;13.50;86.10;;;;;;4859753;29;20074;-75
2023/01/10 17:46:16;;;;;;;10.25;1.45;;;13.50;86.00;;;;;;4858260;29;20068;-75
2023/01/10 17:48:41;;;;;;;9.40;2.20;;;13.60;86.10;;;;;;4861703;29;20022;-75
2023/01/10 17:51:08;;;;;;;7.72;2.38;;;13.60;85.80;;;;;;4864481;29;20044;-75
2023/01/10 17:53:34;;;;;;;5.75;1.60;;;13.60;85.50;;;;;;4853672;29;20044;-80
2023/01/10 17:56:00;;;;;;;8.18;2.03;;;13.60;85.70;;;;;;4852919;29;20081;-76
2023/01/10 17:58:27;;;;;;;6.82;2.22;;;13.60;85.50;;;;;;4861248;29;20026;-76
2023/01/10 18:00:52;;;;;;;8.98;2.20;;;13.60;85.50;;;;;;4854177;29;20033;-76
2023/01/10 18:03:22;;;;;;;14.20;2.40;;;13.60;85.70;;;;;;4847694;29;20039;-76
2023/01/10 18:05:49;;;;;;;;;;;13.60;85.60;;;;;;4850539;29;20589;-76
2023/01/10 18:08:15;;;;;;;9.75;1.50;;;13.70;85.50;;;;;;4853836;29;19920;-76
2023/01/10 18:10:40;;;;;;;10.82;1.75;;;13.70;85.40;;;;;;4841617;29;20029;-77
2023/01/10 18:13:08;;;;;;;6.68;1.85;;;13.70;85.40;;;;;;4842137;29;20112;-76
2023/01/10 18:15:34;;;;;;;11.50;2.05;;;13.70;85.40;;;;;;4853875;29;20026;-76
2023/01/10 18:18:00;;;;;;;13.50;2.17;;;13.70;85.40;;;;;;4851875;29;20037;-76
2023/01/10 18:20:26;;;;;;;11.35;2.30;;;13.70;85.40;;;;;;4855077;29;20110;-76
2023/01/10 18:25:55;;;;;;;7.20;2.00;;;13.70;85.40;;;;;;4857835;29;20040;-78
2023/01/10 18:28:22;;;;;;;8.88;1.98;;;13.70;85.50;;;;;;4844791;29;20034;-77
2023/01/10 18:30:49;;;;;;;9.48;1.85;;;13.70;85.50;;;;;;4855838;29;20042;-75
2023/01/10 18:33:15;;;;;;;10.32;1.88;;;13.70;85.30;;;;;;4856041;29;20037;-77
2023/01/10 18:35:41;;;;;;;9.77;1.80;;;13.70;85.30;;;;;;4856828;29;20778;-77
2023/01/10 18:38:06;;;;;;;8.70;1.95;;;13.70;85.30;;;;;;4840575;29;20641;-76
2023/01/10 18:40:32;;;;;;;9.60;2.13;;;13.70;85.30;;;;;;4862039;29;20704;-73
2023/01/10 18:42:59;;;;;;;10.90;2.08;;;13.70;85.40;;;;;;4885078;29;20032;-77
2023/01/10 18:45:26;;;;;;;9.75;1.70;;;13.80;85.20;;;;;;4866478;29;20613;-76
2023/01/10 18:47:54;;;;;;;9.15;2.10;;;13.80;85.30;;;;;;4857911;29;20043;-76
2023/01/10 18:50:21;;;;;;;10.60;2.47;;;13.80;85.30;;;;;;4863961;29;20385;-76
2023/01/10 18:52:47;;;;;;;7.40;1.88;;;13.80;85.40;;;;;;4881794;29;20033;-76
2023/01/10 18:55:12;;;;;;;9.20;2.00;;;13.80;85.30;;;;;;4868081;29;20386;-75
2023/01/10 18:57:38;;;;;;;8.10;2.00;;;13.80;85.40;;;;;;4871980;29;20033;-76